Time;durP1;ratioP1;P1;durP2;ratioP2;P2;SDS_P1;SDS_P2;PMS_P1;PMS_P2;Temp;Humidity;BMP_temperature;BMP_pressure;BME280_temperature;BME280_humidity;BME280_pressure;Samples;Min_cycle;Max_cycle;Signal;HPM_P1;HPM_P2
2022/04/14 00:00:41;;;;;;;20.17;12.23;;;16.40;99.90;;;;;;4896047;29;20228;-70
2022/04/14 00:03:08;;;;;;;17.80;11.47;;;16.40;99.90;;;;;;4894135;29;20204;-70
2022/04/14 00:05:34;;;;;;;21.90;13.13;;;16.30;99.90;;;;;;4893552;29;20207;-73
2022/04/14 00:08:01;;;;;;;18.53;12.40;;;16.40;99.90;;;;;;4891687;29;20256;-70
2022/04/14 00:10:28;;;;;;;19.07;11.27;;;16.30;99.90;;;;;;4895945;29;20220;-70
2022/04/14 00:12:54;;;;;;;16.80;11.53;;;16.30;99.90;;;;;;4889661;29;20213;-70
2022/04/14 00:15:22;;;;;;;18.07;11.43;;;16.30;99.90;;;;;;4893774;29;20196;-74
2022/04/14 00:17:48;;;;;;;17.30;10.93;;;16.30;99.90;;;;;;4909252;29;20207;-72
2022/04/14 00:20:15;;;;;;;18.70;11.13;;;16.20;99.90;;;;;;4893278;29;20500;-70
2022/04/14 00:22:42;;;;;;;18.87;11.07;;;16.20;99.90;;;;;;4894693;29;20203;-73
2022/04/14 00:25:10;;;;;;;19.87;10.93;;;16.20;99.90;;;;;;4897030;29;20212;-70
2022/04/14 00:27:37;;;;;;;16.60;10.43;;;16.20;99.90;;;;;;4896401;29;20274;-69
2022/04/14 00:30:05;;;;;;;19.17;10.87;;;16.20;99.90;;;;;;4898204;29;20303;-74
2022/04/14 00:32:31;;;;;;;24.13;11.87;;;16.20;99.90;;;;;;4895164;29;20204;-70
2022/04/14 00:34:58;;;;;;;18.50;11.37;;;16.10;99.90;;;;;;4900229;29;20201;-74
2022/04/14 00:37:25;;;;;;;19.57;11.40;;;16.10;99.90;;;;;;4895306;29;20200;-70
2022/04/14 00:39:52;;;;;;;16.07;10.63;;;16.10;99.90;;;;;;4894906;29;20227;-70
2022/04/14 00:42:18;;;;;;;19.10;9.90;;;16.10;99.90;;;;;;4893333;29;20196;-74
2022/04/14 00:44:45;;;;;;;18.17;10.37;;;16.10;99.90;;;;;;4893408;29;20196;-71
2022/04/14 00:47:13;;;;;;;15.63;10.20;;;16.10;99.90;;;;;;4894700;29;20201;-70
2022/04/14 00:49:40;;;;;;;14.13;9.90;;;16.00;99.90;;;;;;4892509;29;20276;-75
2022/04/14 00:52:08;;;;;;;18.00;10.33;;;16.00;99.90;;;;;;4894366;29;20208;-74
2022/04/14 00:54:35;;;;;;;18.03;10.87;;;16.00;99.90;;;;;;4895861;29;20325;-76
2022/04/14 00:57:03;;;;;;;17.90;10.13;;;16.00;99.90;;;;;;4893319;29;20583;-74
2022/04/14 00:59:30;;;;;;;17.83;10.47;;;15.90;99.90;;;;;;4894518;29;20253;-71
2022/04/14 01:01:57;;;;;;;17.10;10.13;;;16.00;99.90;;;;;;4892845;29;20331;-71
2022/04/14 01:04:28;;;;;;;16.97;10.10;;;15.90;99.90;;;;;;4894288;29;20251;-74
2022/04/14 01:06:54;;;;;;;21.63;10.50;;;15.90;99.90;;;;;;4892417;29;20204;-72
2022/04/14 01:09:22;;;;;;;15.50;9.60;;;15.90;99.90;;;;;;4892880;29;20223;-71
2022/04/14 01:11:50;;;;;;;17.13;10.33;;;15.90;99.90;;;;;;4890920;29;20207;-71
2022/04/14 01:14:28;;;;;;;15.40;9.40;;;15.80;99.90;;;;;;4891511;29;20200;-71
2022/04/14 01:16:56;;;;;;;17.80;10.03;;;15.80;99.90;;;;;;4893249;29;20680;-72
2022/04/14 01:19:24;;;;;;;16.73;10.10;;;15.80;99.90;;;;;;4893392;29;20230;-73
2022/04/14 01:22:04;;;;;;;15.87;9.77;;;15.80;99.90;;;;;;4891562;29;20596;-74
2022/04/14 01:24:30;;;;;;;14.43;9.60;;;15.70;99.90;;;;;;4890859;29;20196;-72
2022/04/14 01:26:59;;;;;;;19.40;9.80;;;15.70;99.90;;;;;;4895906;29;20204;-74
2022/04/14 01:29:28;;;;;;;14.73;9.83;;;15.70;99.90;;;;;;4891771;29;20231;-73
2022/04/14 01:31:56;;;;;;;14.90;10.00;;;15.60;99.90;;;;;;4891108;29;20206;-72
2022/04/14 01:34:22;;;;;;;15.93;10.03;;;15.60;99.90;;;;;;4892206;29;20211;-74
2022/04/14 01:36:49;;;;;;;14.83;10.50;;;15.60;99.90;;;;;;4895455;29;20207;-73
2022/04/14 01:39:16;;;;;;;15.50;9.87;;;15.50;99.90;;;;;;4893234;29;20228;-76
2022/04/14 01:41:44;;;;;;;16.63;9.83;;;15.50;99.90;;;;;;4897449;29;20590;-71
2022/04/14 01:44:11;;;;;;;16.97;10.10;;;15.50;99.90;;;;;;4891512;29;20203;-74
2022/04/14 01:46:39;;;;;;;17.37;9.87;;;15.50;99.90;;;;;;4894278;29;20199;-75
2022/04/14 01:49:07;;;;;;;17.07;10.30;;;15.40;99.90;;;;;;4891158;29;20238;-74
2022/04/14 01:51:34;;;;;;;17.00;10.47;;;15.40;99.90;;;;;;4896155;29;20648;-69
2022/04/14 01:54:01;;;;;;;18.13;10.00;;;15.30;99.90;;;;;;4887148;29;20279;-76
2022/04/14 01:56:28;;;;;;;16.03;9.93;;;15.30;99.90;;;;;;4894517;29;20578;-71
2022/04/14 01:58:55;;;;;;;19.57;11.33;;;15.30;99.90;;;;;;4890948;29;20482;-72
2022/04/14 02:01:22;;;;;;;17.20;10.13;;;15.30;99.90;;;;;;4895717;29;20916;-73
2022/04/14 02:03:49;;;;;;;19.00;10.70;;;15.30;99.90;;;;;;4887519;29;20276;-71
2022/04/14 02:06:16;;;;;;;16.73;10.70;;;15.20;99.90;;;;;;4892780;29;20660;-76
2022/04/14 02:08:43;;;;;;;17.80;10.80;;;15.20;99.90;;;;;;4892484;29;20231;-72
2022/04/14 02:11:10;;;;;;;17.57;11.23;;;15.20;99.90;;;;;;4892460;29;20218;-72
2022/04/14 02:13:37;;;;;;;19.50;11.33;;;15.20;99.90;;;;;;4888127;29;20214;-77
2022/04/14 02:16:05;;;;;;;18.67;10.70;;;15.20;99.90;;;;;;4892213;29;20642;-71
2022/04/14 02:18:31;;;;;;;19.30;11.37;;;15.10;99.90;;;;;;4894725;29;20312;-74
2022/04/14 02:20:59;;;;;;;17.93;10.77;;;15.20;99.90;;;;;;4890590;29;20590;-74
2022/04/14 02:23:26;;;;;;;19.90;11.67;;;15.10;99.90;;;;;;4893998;29;20830;-73
2022/04/14 02:25:53;;;;;;;17.77;11.33;;;15.10;99.90;;;;;;4891815;29;20286;-70
2022/04/14 02:28:20;;;;;;;20.03;11.97;;;15.00;99.90;;;;;;4888358;29;20256;-75
2022/04/14 02:30:48;;;;;;;19.07;11.80;;;14.90;99.90;;;;;;4891373;29;20227;-73
2022/04/14 02:33:15;;;;;;;18.53;11.47;;;14.90;99.90;;;;;;4893132;29;20196;-71
2022/04/14 02:35:42;;;;;;;21.43;12.00;;;14.90;99.90;;;;;;4891696;29;20208;-75
2022/04/14 02:38:09;;;;;;;21.30;11.97;;;14.90;99.90;;;;;;4895037;29;20267;-76
2022/04/14 02:40:36;;;;;;;19.47;11.63;;;14.90;99.90;;;;;;4891898;29;20233;-73
2022/04/14 02:43:02;;;;;;;20.87;11.70;;;14.80;99.90;;;;;;4891760;29;20209;-75
2022/04/14 02:45:30;;;;;;;19.87;12.53;;;14.80;99.90;;;;;;4896472;29;20206;-71
2022/04/14 02:47:57;;;;;;;21.47;13.03;;;14.80;99.90;;;;;;4893508;29;20625;-73
2022/04/14 02:50:23;;;;;;;20.97;11.43;;;14.80;99.90;;;;;;4885546;29;20219;-73
2022/04/14 02:52:50;;;;;;;18.27;12.40;;;14.80;99.90;;;;;;4893254;29;20201;-72
2022/04/14 02:55:19;;;;;;;23.53;13.07;;;14.80;99.90;;;;;;4893166;29;20214;-72
2022/04/14 02:57:46;;;;;;;17.80;11.50;;;14.80;99.90;;;;;;4891171;29;20223;-75
2022/04/14 03:00:14;;;;;;;20.73;11.93;;;14.70;99.90;;;;;;4889563;29;20240;-73
2022/04/14 03:02:41;;;;;;;17.30;12.03;;;14.70;99.90;;;;;;4891860;29;20239;-72
2022/04/14 03:05:08;;;;;;;21.70;13.13;;;14.70;99.90;;;;;;4893624;29;20207;-70
2022/04/14 03:07:36;;;;;;;19.40;12.23;;;14.70;99.90;;;;;;4892795;29;20732;-72
2022/04/14 03:10:05;;;;;;;19.53;12.67;;;14.70;99.90;;;;;;4892359;29;20708;-75
2022/04/14 03:12:46;;;;;;;17.77;12.30;;;14.80;99.90;;;;;;4892133;29;20620;-72
2022/04/14 03:15:14;;;;;;;20.70;12.90;;;14.80;99.90;;;;;;4894597;29;20209;-73
2022/04/14 03:17:41;;;;;;;24.80;13.47;;;14.80;99.90;;;;;;4890628;29;20244;-73
2022/04/14 03:20:09;;;;;;;20.50;12.40;;;14.70;99.90;;;;;;4889791;29;20224;-70
2022/04/14 03:22:36;;;;;;;24.60;13.03;;;14.70;99.90;;;;;;4893123;29;20228;-75
2022/04/14 03:25:04;;;;;;;19.83;12.60;;;14.70;99.90;;;;;;4893151;29;20195;-72
2022/04/14 03:27:31;;;;;;;21.37;11.57;;;14.70;99.90;;;;;;4890387;29;20207;-76
2022/04/14 03:29:58;;;;;;;20.30;11.83;;;14.60;99.90;;;;;;4892301;29;20226;-72
2022/04/14 03:32:25;;;;;;;22.33;13.23;;;14.50;99.90;;;;;;4889863;29;20204;-72
2022/04/14 03:34:53;;;;;;;23.00;12.70;;;14.60;99.90;;;;;;4894443;29;20563;-74
2022/04/14 03:37:20;;;;;;;18.70;12.43;;;14.60;99.90;;;;;;4887489;29;20204;-71
2022/04/14 03:39:47;;;;;;;21.87;13.13;;;14.60;99.90;;;;;;4890023;29;20235;-75
2022/04/14 03:42:14;;;;;;;21.17;12.50;;;14.60;99.90;;;;;;4893058;29;20231;-72
2022/04/14 03:44:40;;;;;;;21.90;13.43;;;14.50;99.90;;;;;;4893198;29;20211;-75
2022/04/14 03:47:08;;;;;;;18.07;12.63;;;14.60;99.90;;;;;;4888565;29;20200;-72
2022/04/14 03:49:34;;;;;;;24.63;14.23;;;14.50;99.90;;;;;;4896744;29;20258;-77
2022/04/14 03:52:01;;;;;;;22.90;13.87;;;14.40;99.90;;;;;;4888899;29;20199;-70
2022/04/14 03:54:28;;;;;;;25.50;14.30;;;14.30;99.90;;;;;;4898210;29;20667;-72
2022/04/14 03:56:55;;;;;;;24.97;13.87;;;14.40;99.90;;;;;;4893265;29;20277;-73
2022/04/14 03:59:21;;;;;;;27.73;13.87;;;14.50;99.90;;;;;;4894856;29;20246;-72
2022/04/14 04:01:48;;;;;;;23.00;14.17;;;14.50;99.90;;;;;;4895600;29;20289;-70
2022/04/14 04:04:15;;;;;;;23.50;13.47;;;14.40;99.90;;;;;;4900176;29;20229;-74
2022/04/14 04:06:41;;;;;;;22.43;14.00;;;14.40;99.90;;;;;;4897853;29;20608;-73
2022/04/14 04:09:08;;;;;;;22.17;14.13;;;14.30;99.90;;;;;;4893741;29;20239;-71
2022/04/14 04:11:35;;;;;;;24.23;14.53;;;14.30;99.90;;;;;;4895886;29;20225;-73
2022/04/14 04:14:02;;;;;;;22.60;13.67;;;14.30;99.90;;;;;;4896263;29;20203;-74
2022/04/14 04:16:28;;;;;;;21.67;13.30;;;14.20;99.90;;;;;;4896265;29;20593;-70
2022/04/14 04:18:55;;;;;;;26.60;14.27;;;14.10;99.90;;;;;;4896903;29;22054;-77
2022/04/14 04:21:22;;;;;;;24.07;15.10;;;14.00;99.90;;;;;;4896696;29;20229;-72
2022/04/14 04:23:48;;;;;;;23.43;14.60;;;14.00;99.90;;;;;;4894169;29;20217;-73
2022/04/14 04:26:15;;;;;;;23.40;13.80;;;14.10;99.90;;;;;;4900391;29;20619;-72
2022/04/14 04:28:41;;;;;;;25.00;14.30;;;14.00;99.90;;;;;;4896040;29;20219;-74
2022/04/14 04:31:11;;;;;;;24.10;15.00;;;14.00;99.90;;;;;;4893491;29;20674;-72
2022/04/14 04:33:38;;;;;;;25.43;14.70;;;13.80;99.90;;;;;;4890316;29;20474;-73
2022/04/14 04:36:05;;;;;;;24.17;15.40;;;13.80;99.90;;;;;;4895960;29;20226;-71
2022/04/14 04:38:31;;;;;;;23.23;14.77;;;13.80;99.90;;;;;;4893857;29;20223;-71
2022/04/14 04:40:58;;;;;;;28.27;15.53;;;13.80;99.90;;;;;;4891132;29;20267;-72
2022/04/14 04:43:26;;;;;;;24.37;15.37;;;13.90;99.90;;;;;;4891508;29;20204;-73
2022/04/14 04:45:53;;;;;;;22.33;13.57;;;13.90;99.90;;;;;;4893468;29;20624;-72
2022/04/14 04:48:19;;;;;;;23.87;14.57;;;13.80;99.90;;;;;;4893667;29;20672;-75
2022/04/14 04:50:46;;;;;;;25.93;14.23;;;13.80;99.90;;;;;;4892492;29;20206;-74
2022/04/14 04:53:13;;;;;;;21.93;13.63;;;13.80;99.90;;;;;;4893335;29;20676;-70
2022/04/14 04:55:40;;;;;;;24.00;14.27;;;13.70;99.90;;;;;;4890942;29;20275;-78
2022/04/14 04:58:06;;;;;;;24.37;15.57;;;13.70;99.90;;;;;;4890253;29;20201;-74
2022/04/14 05:00:33;;;;;;;29.63;16.33;;;13.80;99.90;;;;;;4893728;29;20291;-71
2022/04/14 05:03:00;;;;;;;22.87;14.50;;;13.90;99.90;;;;;;4892642;29;20334;-72
2022/04/14 05:05:28;;;;;;;27.73;15.37;;;13.90;99.90;;;;;;4894371;29;20303;-71
2022/04/14 05:07:55;;;;;;;25.43;15.40;;;14.00;99.90;;;;;;4890919;29;20207;-73
2022/04/14 05:10:21;;;;;;;29.83;17.03;;;14.00;99.90;;;;;;4893734;29;20223;-71
2022/04/14 05:12:48;;;;;;;28.57;15.90;;;14.20;99.90;;;;;;4891514;29;20688;-71
2022/04/14 05:15:15;;;;;;;23.93;15.73;;;14.20;99.90;;;;;;4890759;29;20200;-76
2022/04/14 05:17:42;;;;;;;28.20;16.60;;;14.20;99.90;;;;;;4888959;29;20200;-72
2022/04/14 05:20:09;;;;;;;27.13;14.83;;;14.40;99.90;;;;;;4895252;29;20744;-72
2022/04/14 05:22:36;;;;;;;25.00;15.73;;;14.50;99.90;;;;;;4893350;29;20223;-71
2022/04/14 05:25:03;;;;;;;26.90;16.07;;;14.60;99.90;;;;;;4893715;29;20200;-72
2022/04/14 05:27:29;;;;;;;29.70;16.30;;;14.80;99.90;;;;;;4888595;29;20244;-75
2022/04/14 05:29:56;;;;;;;26.03;16.10;;;14.90;99.90;;;;;;4886626;29;20254;-72
2022/04/14 05:32:23;;;;;;;30.83;17.37;;;15.00;99.90;;;;;;4889029;29;20580;-73
2022/04/14 05:34:55;;;;;;;26.60;16.53;;;15.10;99.90;;;;;;4891548;29;20196;-72
2022/04/14 05:37:21;;;;;;;24.50;15.13;;;15.20;99.90;;;;;;4892244;29;20215;-73
2022/04/14 05:39:48;;;;;;;24.07;15.13;;;15.40;99.90;;;;;;4891691;29;21232;-73
2022/04/14 05:42:14;;;;;;;22.33;14.73;;;15.60;99.90;;;;;;4891646;29;20257;-73
2022/04/14 05:44:41;;;;;;;21.43;13.60;;;15.70;99.90;;;;;;4886610;29;20201;-71
2022/04/14 05:47:08;;;;;;;21.07;14.03;;;15.90;99.90;;;;;;4889946;29;20208;-71
2022/04/14 05:49:34;;;;;;;21.87;13.93;;;16.00;99.90;;;;;;4887294;29;20667;-70
2022/04/14 05:52:01;;;;;;;28.20;14.00;;;16.10;99.90;;;;;;4884661;29;20624;-72
2022/04/14 05:54:27;;;;;;;22.47;13.60;;;16.20;99.90;;;;;;4892574;29;20212;-70
2022/04/14 05:56:54;;;;;;;19.97;12.37;;;16.20;99.90;;;;;;4890198;29;20203;-74
2022/04/14 05:59:21;;;;;;;22.27;14.00;;;16.40;99.90;;;;;;4890703;29;20637;-72
2022/04/14 06:01:48;;;;;;;26.47;15.87;;;16.40;99.90;;;;;;4889098;29;20224;-71
2022/04/14 06:04:20;;;;;;;23.93;15.03;;;16.50;99.90;;;;;;4889968;29;20200;-71
2022/04/14 06:06:46;;;;;;;22.77;13.10;;;16.60;99.90;;;;;;4889019;29;20598;-75
2022/04/14 06:09:13;;;;;;;25.90;13.13;;;16.70;99.90;;;;;;4889802;29;20243;-78
2022/04/14 06:11:40;;;;;;;23.23;13.33;;;16.80;99.90;;;;;;4890950;29;20203;-73
2022/04/14 06:14:07;;;;;;;21.87;13.87;;;16.90;99.90;;;;;;4892893;29;20204;-71
2022/04/14 06:16:34;;;;;;;23.07;15.00;;;17.00;99.90;;;;;;4892713;29;20691;-71
2022/04/14 06:19:01;;;;;;;22.73;12.93;;;17.10;99.90;;;;;;4890461;29;20608;-71
2022/04/14 06:21:27;;;;;;;25.97;13.83;;;17.20;99.90;;;;;;4890977;29;20209;-69
2022/04/14 06:23:56;;;;;;;21.03;12.73;;;17.30;99.90;;;;;;4890966;29;20630;-72
2022/04/14 06:26:22;;;;;;;29.17;15.00;;;17.40;99.90;;;;;;4892178;29;20200;-70
2022/04/14 06:28:49;;;;;;;27.80;15.13;;;17.40;99.90;;;;;;4889833;29;20253;-74
2022/04/14 06:31:16;;;;;;;25.70;14.13;;;17.50;99.90;;;;;;4889590;29;20268;-71
2022/04/14 06:33:44;;;;;;;32.60;15.87;;;17.50;99.90;;;;;;4890455;29;20265;-72
2022/04/14 06:36:11;;;;;;;30.13;15.20;;;17.40;99.90;;;;;;4891819;29;20208;-72
2022/04/14 06:38:39;;;;;;;28.70;13.57;;;17.40;99.90;;;;;;4885719;29;20228;-73
2022/04/14 06:41:06;;;;;;;30.47;15.30;;;17.40;99.90;;;;;;4890822;29;20215;-69
2022/04/14 06:43:33;;;;;;;23.13;15.63;;;17.30;99.90;;;;;;4918264;29;20343;-71
2022/04/14 06:46:03;;;;;;;23.77;15.60;;;17.20;99.90;;;;;;4894349;29;20204;-74
2022/04/14 06:48:31;;;;;;;21.90;14.40;;;16.90;99.90;;;;;;4895758;29;20735;-72
2022/04/14 06:50:59;;;;;;;26.37;15.20;;;17.10;99.90;;;;;;4894315;29;20267;-75
2022/04/14 06:53:27;;;;;;;26.50;15.27;;;17.20;99.90;;;;;;4897539;29;20199;-73
2022/04/14 06:55:54;;;;;;;21.50;14.53;;;17.30;99.90;;;;;;4894342;29;20208;-72
2022/04/14 06:58:20;;;;;;;27.93;14.90;;;17.30;99.90;;;;;;4907652;29;20211;-75
2022/04/14 07:00:47;;;;;;;28.77;15.17;;;17.60;99.90;;;;;;4892073;29;20223;-71
2022/04/14 07:03:14;;;;;;;23.83;14.23;;;17.70;99.90;;;;;;4892050;29;20228;-71
2022/04/14 07:05:41;;;;;;;23.17;14.80;;;17.70;99.90;;;;;;4893988;29;20204;-73
2022/04/14 07:08:07;;;;;;;24.47;15.80;;;17.60;99.90;;;;;;4892989;29;20573;-71
2022/04/14 07:10:34;;;;;;;25.00;15.57;;;17.40;99.90;;;;;;4890150;29;20215;-71
2022/04/14 07:13:01;;;;;;;22.67;14.47;;;17.30;99.90;;;;;;4896289;29;20693;-74
2022/04/14 07:15:28;;;;;;;24.83;15.53;;;17.10;99.90;;;;;;4888471;29;20207;-72
2022/04/14 07:17:55;;;;;;;25.97;15.67;;;17.20;99.90;;;;;;4907550;29;20204;-73
2022/04/14 07:20:23;;;;;;;22.87;15.27;;;17.30;99.90;;;;;;4890914;29;20244;-71
2022/04/14 07:22:51;;;;;;;23.53;14.63;;;17.40;99.90;;;;;;4890275;29;20228;-75
2022/04/14 07:25:23;;;;;;;25.27;15.27;;;17.30;99.90;;;;;;4890238;29;20201;-72
2022/04/14 07:27:52;;;;;;;21.20;14.13;;;17.40;99.90;;;;;;4886370;29;20200;-78
2022/04/14 07:30:20;;;;;;;24.33;14.27;;;17.40;99.90;;;;;;4890763;29;20235;-74
2022/04/14 07:32:47;;;;;;;24.13;14.17;;;17.50;99.90;;;;;;4892839;29;20208;-77
2022/04/14 07:35:14;;;;;;;20.93;13.63;;;17.70;99.90;;;;;;4892736;29;20200;-75
2022/04/14 07:37:41;;;;;;;26.47;13.90;;;17.80;99.90;;;;;;4899555;29;20206;-72
2022/04/14 07:40:08;;;;;;;28.73;14.17;;;18.00;99.90;;;;;;4890897;29;20231;-74
2022/04/14 07:42:37;;;;;;;24.23;13.43;;;18.20;99.90;;;;;;4889183;29;20231;-73
2022/04/14 07:45:05;;;;;;;24.53;14.03;;;18.30;99.90;;;;;;4885784;29;20605;-75
2022/04/14 07:47:42;;;;;;;22.90;13.57;;;18.50;99.90;;;;;;4885921;29;20201;-73
2022/04/14 07:50:19;;;;;;;19.47;13.67;;;18.70;99.90;;;;;;4887510;29;24146;-75
2022/04/14 07:52:50;;;;;;;21.73;14.00;;;19.00;99.90;;;;;;4901741;29;20204;-75
2022/04/14 07:55:27;;;;;;;26.83;14.50;;;19.10;99.90;;;;;;4887573;29;20294;-74
2022/04/14 07:57:55;;;;;;;20.27;13.47;;;19.00;99.90;;;;;;4906603;29;20207;-70
2022/04/14 08:00:23;;;;;;;21.13;13.97;;;18.90;99.90;;;;;;4884910;29;20231;-76
2022/04/14 08:02:55;;;;;;;24.60;14.87;;;18.70;99.90;;;;;;4883648;29;20224;-73
2022/04/14 08:05:28;;;;;;;26.93;14.37;;;18.50;99.90;;;;;;4888742;29;20219;-73
2022/04/14 08:07:55;;;;;;;23.83;14.83;;;18.30;99.90;;;;;;4880377;29;20673;-72
2022/04/14 08:10:22;;;;;;;21.03;13.40;;;18.10;99.90;;;;;;4883424;29;20227;-73
2022/04/14 08:12:49;;;;;;;22.13;14.10;;;18.20;99.90;;;;;;4896178;29;20285;-72
2022/04/14 08:15:16;;;;;;;25.80;14.37;;;18.20;99.90;;;;;;4892987;29;20261;-71
2022/04/14 08:17:43;;;;;;;23.40;13.50;;;18.00;99.90;;;;;;4889153;29;20215;-72
2022/04/14 08:20:12;;;;;;;25.47;15.33;;;18.10;99.90;;;;;;4893867;29;20235;-73
2022/04/14 08:22:54;;;;;;;23.70;14.93;;;18.30;99.90;;;;;;4893164;29;20209;-76
2022/04/14 08:25:28;;;;;;;26.83;14.90;;;18.50;99.90;;;;;;4889906;29;20691;-72
2022/04/14 08:27:56;;;;;;;23.93;15.27;;;18.20;99.90;;;;;;4893639;29;20212;-72
2022/04/14 08:30:25;;;;;;;23.60;14.77;;;18.00;99.90;;;;;;4889841;29;20225;-74
2022/04/14 08:32:53;;;;;;;23.53;14.30;;;17.90;99.90;;;;;;4887220;29;20205;-73
2022/04/14 08:35:20;;;;;;;25.93;15.47;;;17.90;99.90;;;;;;4896538;29;20220;-74
2022/04/14 08:37:48;;;;;;;27.97;16.27;;;18.10;99.90;;;;;;4894772;29;20200;-72
2022/04/14 08:40:19;;;;;;;28.87;16.43;;;17.80;99.90;;;;;;4895687;29;20709;-71
2022/04/14 08:42:57;;;;;;;30.13;17.00;;;17.80;99.90;;;;;;4894565;29;20227;-72
2022/04/14 08:45:27;;;;;;;26.43;16.07;;;17.70;99.90;;;;;;4891986;29;20191;-72
2022/04/14 08:47:54;;;;;;;30.20;17.00;;;17.70;99.90;;;;;;4884081;29;20578;-72
2022/04/14 08:50:23;;;;;;;26.87;16.77;;;17.80;99.90;;;;;;4892255;29;20220;-73
2022/04/14 08:52:50;;;;;;;26.10;15.80;;;18.10;99.90;;;;;;4889694;29;20204;-75
2022/04/14 08:55:18;;;;;;;29.13;17.17;;;18.50;99.90;;;;;;4893901;29;20200;-72
2022/04/14 08:57:45;;;;;;;22.80;15.43;;;18.80;99.90;;;;;;4890784;29;20207;-72
2022/04/14 09:00:14;;;;;;;28.43;15.70;;;19.30;99.90;;;;;;4889226;29;20232;-73
2022/04/14 09:02:44;;;;;;;24.97;15.73;;;19.50;99.90;;;;;;4890966;29;20220;-73
2022/04/14 09:05:10;;;;;;;27.53;15.93;;;19.60;99.90;;;;;;4889439;29;20209;-75
2022/04/14 09:07:38;;;;;;;28.40;16.37;;;19.80;99.90;;;;;;4885346;29;20577;-73
2022/04/14 09:10:06;;;;;;;23.33;15.30;;;19.80;99.90;;;;;;4892000;29;20283;-73
2022/04/14 09:12:37;;;;;;;23.27;14.93;;;19.90;99.90;;;;;;4889751;29;20677;-74
2022/04/14 09:15:05;;;;;;;21.60;14.38;;;20.20;99.90;;;;;;4889500;29;20692;-74
2022/04/14 09:17:32;;;;;;;22.92;14.10;;;20.70;99.90;;;;;;4892789;29;20212;-71
2022/04/14 09:19:58;;;;;;;21.83;13.90;;;20.80;99.90;;;;;;4886697;29;20649;-73
2022/04/14 09:22:25;;;;;;;25.48;14.55;;;21.10;99.90;;;;;;4890409;29;20705;-71
2022/04/14 09:24:57;;;;;;;21.98;14.68;;;20.90;99.90;;;;;;4886556;29;20213;-72
2022/04/14 09:27:41;;;;;;;22.73;14.02;;;20.60;99.90;;;;;;4885878;29;20204;-73
2022/04/14 09:30:08;;;;;;;21.27;13.83;;;20.80;99.90;;;;;;4887561;29;20239;-74
2022/04/14 09:32:42;;;;;;;23.27;14.77;;;20.00;99.90;;;;;;4883271;29;20204;-73
2022/04/14 09:35:17;;;;;;;21.37;14.47;;;20.10;99.90;;;;;;4888372;29;20214;-75
2022/04/14 09:37:44;;;;;;;21.40;13.17;;;19.90;99.90;;;;;;4890271;29;20276;-78
2022/04/14 09:40:12;;;;;;;23.00;13.87;;;19.40;99.90;;;;;;4894634;29;20228;-75
2022/04/14 09:42:41;;;;;;;25.10;13.07;;;19.10;99.90;;;;;;4888117;29;20251;-74
2022/04/14 09:45:23;;;;;;;25.30;13.57;;;18.90;99.90;;;;;;4892071;29;20657;-75
2022/04/14 09:48:12;;;;;;;22.30;12.30;;;19.10;99.90;;;;;;4891467;29;20760;-73
2022/04/14 09:50:43;;;;;;;18.73;12.23;;;19.40;99.90;;;;;;4893176;29;20226;-75
2022/04/14 09:53:14;;;;;;;21.77;11.63;;;19.70;99.90;;;;;;4894132;29;20200;-76
2022/04/14 09:55:42;;;;;;;19.37;12.17;;;20.10;99.90;;;;;;4890019;29;20200;-72
2022/04/14 09:58:17;;;;;;;17.98;10.73;;;20.10;99.90;;;;;;4890678;29;20204;-72
2022/04/14 10:00:49;;;;;;;17.33;11.32;;;20.20;99.90;;;;;;4893902;29;20219;-73
2022/04/14 10:03:18;;;;;;;15.90;9.75;;;20.40;99.90;;;;;;4895848;29;20220;-72
2022/04/14 10:05:47;;;;;;;16.85;10.25;;;20.50;99.90;;;;;;4895251;29;20212;-72
2022/04/14 10:08:15;;;;;;;16.33;9.80;;;20.60;99.90;;;;;;4895869;29;20196;-72
2022/04/14 10:10:44;;;;;;;17.33;10.05;;;20.70;99.90;;;;;;4892131;29;20665;-72
2022/04/14 10:13:15;;;;;;;17.95;9.25;;;20.70;99.90;;;;;;4891296;29;20207;-72
2022/04/14 10:15:45;;;;;;;12.75;9.00;;;20.70;99.90;;;;;;4893820;29;20201;-76
2022/04/14 10:18:13;;;;;;;12.00;8.70;;;20.90;99.90;;;;;;4892796;29;20230;-73
2022/04/14 10:20:43;;;;;;;16.42;9.10;;;21.20;99.90;;;;;;4884207;29;20208;-76
2022/04/14 10:23:11;;;;;;;17.13;8.80;;;21.20;99.90;;;;;;4892128;29;20226;-74
2022/04/14 10:25:39;;;;;;;14.60;8.90;;;21.50;99.90;;;;;;4881379;29;20692;-74
2022/04/14 10:28:08;;;;;;;16.27;9.32;;;21.70;99.90;;;;;;4887856;29;20200;-75
2022/04/14 10:30:35;;;;;;;16.05;9.43;;;21.70;99.90;;;;;;4888787;29;20203;-76
2022/04/14 10:33:02;;;;;;;14.20;8.43;;;22.10;99.90;;;;;;4889180;29;20231;-74
2022/04/14 10:35:31;;;;;;;15.07;8.75;;;22.20;99.90;;;;;;4887366;29;20207;-77
2022/04/14 10:38:31;;;;;;;15.48;8.75;;;22.30;99.90;;;;;;4888066;29;20219;-74
2022/04/14 10:41:07;;;;;;;14.52;8.30;;;22.10;99.90;;;;;;4885548;29;20212;-74
2022/04/14 10:43:37;;;;;;;13.45;8.48;;;22.20;99.90;;;;;;4889432;29;20220;-74
2022/04/14 10:46:04;;;;;;;13.65;8.50;;;22.60;99.90;;;;;;4885466;29;20256;-75
2022/04/14 10:48:36;;;;;;;16.73;8.63;;;22.90;99.90;;;;;;4890252;29;20215;-74
2022/04/14 10:51:28;;;;;;;15.25;9.82;;;22.90;99.90;;;;;;4887866;29;20205;-74
2022/04/14 10:54:00;;;;;;;13.05;8.20;;;22.40;99.90;;;;;;4885603;29;20279;-77
2022/04/14 10:56:44;;;;;;;15.07;8.60;;;22.50;99.90;;;;;;4888629;29;20286;-73
2022/04/14 10:59:16;;;;;;;13.45;8.15;;;23.00;99.90;;;;;;4888455;29;20228;-75
2022/04/14 11:01:50;;;;;;;13.50;7.53;;;23.20;99.90;;;;;;4884604;29;20216;-70
2022/04/14 11:04:33;;;;;;;13.07;7.55;;;23.80;99.90;;;;;;4882497;29;20316;-72
2022/04/14 11:07:13;;;;;;;10.90;7.43;;;23.90;99.90;;;;;;4889826;29;20724;-71
2022/04/14 11:12:11;;;;;;;13.27;7.07;;;24.40;99.90;;;;;;4886794;29;20200;-74
2022/04/14 11:14:47;;;;;;;11.18;7.53;;;24.80;99.90;;;;;;4891419;29;20201;-72
2022/04/14 11:20:44;;;;;;;8.10;6.32;;;25.40;99.90;;;;;;4880547;29;20303;-71
2022/04/14 11:23:24;;;;;;;11.00;6.40;;;25.50;99.90;;;;;;4889646;29;20223;-71
2022/04/14 11:26:07;;;;;;;9.88;6.15;;;25.70;99.90;;;;;;4894885;29;20198;-72
2022/04/14 11:28:36;;;;;;;12.18;5.93;;;25.00;99.90;;;;;;4892645;29;20641;-71
2022/04/14 11:31:18;;;;;;;9.02;5.47;;;24.50;99.90;;;;;;4890759;29;20203;-73
2022/04/14 11:33:47;;;;;;;9.50;5.80;;;24.00;99.90;;;;;;4893924;29;20200;-71
2022/04/14 11:36:16;;;;;;;12.30;6.10;;;23.90;99.90;;;;;;4885218;29;20588;-71
2022/04/14 11:39:05;;;;;;;10.13;5.57;;;23.70;99.90;;;;;;4893705;29;20219;-75
2022/04/14 11:41:46;;;;;;;8.52;5.38;;;23.90;99.90;;;;;;4890414;29;20207;-75
2022/04/14 11:44:17;;;;;;;7.45;4.20;;;23.90;99.90;;;;;;4889162;29;20391;-74
2022/04/14 11:46:50;;;;;;;4.35;3.20;;;23.80;99.90;;;;;;4885770;29;20200;-76
2022/04/14 11:49:22;;;;;;;7.03;3.30;;;23.50;99.90;;;;;;4889890;29;20243;-73
2022/04/14 11:51:51;;;;;;;8.18;3.40;;;23.10;99.90;;;;;;4892296;29;20212;-71
2022/04/14 11:54:28;;;;;;;6.70;3.50;;;22.60;99.90;;;;;;4890627;29;20211;-72
2022/04/14 11:57:10;;;;;;;5.03;3.35;;;22.40;99.90;;;;;;4888202;29;20688;-71
2022/04/14 11:59:46;;;;;;;6.07;3.22;;;22.10;99.90;;;;;;4891418;29;20228;-76
2022/04/14 12:02:15;;;;;;;6.00;3.40;;;22.00;99.90;;;;;;4916419;29;20205;-72
2022/04/14 12:04:47;;;;;;;9.25;3.92;;;22.30;99.90;;;;;;4906024;29;20227;-71
2022/04/14 12:07:15;;;;;;;4.78;3.20;;;21.90;99.90;;;;;;4892848;29;20248;-75
2022/04/14 12:09:42;;;;;;;6.50;3.42;;;21.90;99.90;;;;;;4895805;29;20726;-73
2022/04/14 12:12:17;;;;;;;6.03;3.55;;;21.70;99.90;;;;;;4890814;29;20624;-72
2022/04/14 12:14:52;;;;;;;8.10;4.13;;;22.10;99.90;;;;;;4896536;29;20469;-71
2022/04/14 12:17:22;;;;;;;7.95;4.82;;;22.20;99.90;;;;;;4895988;29;20207;-72
2022/04/14 12:20:00;;;;;;;7.03;4.38;;;21.90;99.90;;;;;;4895147;29;20226;-72
2022/04/14 12:22:32;;;;;;;8.93;4.93;;;21.40;99.90;;;;;;4893757;29;20200;-74
2022/04/14 12:25:01;;;;;;;7.00;3.53;;;21.20;99.90;;;;;;4909611;29;20247;-75
2022/04/14 12:27:34;;;;;;;4.25;3.10;;;21.70;99.90;;;;;;4899887;29;20211;-74
2022/04/14 12:30:07;;;;;;;4.63;3.25;;;22.00;99.90;;;;;;4894862;29;20339;-73
2022/04/14 12:32:34;;;;;;;6.90;4.00;;;22.10;99.90;;;;;;4900174;29;20291;-73
2022/04/14 12:35:00;;;;;;;5.65;3.45;;;22.10;99.90;;;;;;4894741;29;20212;-71
2022/04/14 12:37:35;;;;;;;8.48;4.47;;;22.20;99.90;;;;;;4897677;29;20207;-76
2022/04/14 12:40:15;;;;;;;6.65;3.50;;;22.10;99.90;;;;;;4891889;29;20231;-74
2022/04/14 12:42:43;;;;;;;6.00;3.28;;;21.90;99.90;;;;;;4895139;29;20286;-72
2022/04/14 12:45:15;;;;;;;6.82;3.55;;;22.10;99.90;;;;;;4893999;29;20253;-77